Авиационная погода в Вадсё

Регион: 
Погода METAR: 
ENVD 282020Z VRB01KT 1300 SN VV006 M05/M06 Q0995
Время наблюдения
2022-01-28T20:20:00Z
Температура C
-5.0
Точка росы
-6.0
Направление ветра
0
Скорость ветра (узлы)
1
Метео видимость
0.81
Облачность
OVX
Нижняя граница облачности (футы)
0
Явления погоды
SN
Условия полета
LIFR
SN – снег;